createdAt,value
2019-02-23T00:01:14.767Z,95089.11
2019-02-23T00:03:44.283Z,95101.75
2019-02-23T00:06:13.764Z,95099.98
2019-02-23T00:08:43.257Z,95105.13
2019-02-23T00:11:12.721Z,95112.03
2019-02-23T00:13:42.181Z,95146.27
2019-02-23T00:16:11.663Z,95150.67
2019-02-23T00:18:41.156Z,95168.52
2019-02-23T00:21:10.622Z,95200.77
2019-02-23T00:23:40.113Z,95179.36
2019-02-23T00:26:09.652Z,95195.67
2019-02-23T00:28:39.159Z,95211.66
2019-02-23T00:31:08.641Z,95232.81
2019-02-23T00:33:38.438Z,95229.95
2019-02-23T00:36:07.924Z,95249.39
2019-02-23T00:38:37.447Z,95249.13
2019-02-23T00:41:06.954Z,95279.84
2019-02-23T00:43:36.429Z,95296.49
2019-02-23T00:46:05.936Z,95295.74
2019-02-23T00:48:35.518Z,95308.69
2019-02-23T00:51:05.004Z,95312.86
2019-02-23T00:53:34.497Z,95315.56
2019-02-23T00:56:03.985Z,95335.69
2019-02-23T00:58:33.466Z,95320.02
2019-02-23T01:01:02.993Z,95358.92
2019-02-23T01:03:32.538Z,95353.72
2019-02-23T01:06:02.017Z,95372.06
2019-02-23T01:08:31.507Z,95372.98
2019-02-23T01:11:01.019Z,95380.77
2019-02-23T01:13:30.525Z,95396.19
2019-02-23T01:16:00.082Z,95436.58
2019-02-23T01:18:29.591Z,95407.59
2019-02-23T01:20:59.135Z,95407.50
2019-02-23T01:23:28.626Z,95424.41
2019-02-23T01:25:58.112Z,95422.03
2019-02-23T01:28:27.615Z,95430.20
2019-02-23T01:30:57.126Z,95428.08
2019-02-23T01:33:26.743Z,95424.62
2019-02-23T01:35:56.218Z,95428.20
2019-02-23T01:38:25.703Z,95459.08
2019-02-23T01:40:55.233Z,95467.28
2019-02-23T01:43:24.679Z,95441.72
2019-02-23T01:45:54.218Z,95441.63
2019-02-23T01:48:23.783Z,95463.10
2019-02-23T01:50:53.312Z,95458.70
2019-02-23T01:53:22.796Z,95462.54
2019-02-23T01:55:52.295Z,95461.88
2019-02-23T01:58:21.784Z,95472.84
2019-02-23T02:00:51.338Z,95479.03
2019-02-23T02:03:20.832Z,95473.09
2019-02-23T02:05:50.499Z,95475.81
2019-02-23T02:08:19.995Z,95478.88
2019-02-23T02:10:49.434Z,95481.87
2019-02-23T02:13:18.959Z,95485.91
2019-02-23T02:15:48.549Z,95486.83
2019-02-23T02:18:18.038Z,95493.92
2019-02-23T02:20:47.514Z,95495.03
2019-02-23T02:23:17.075Z,95505.09
2019-02-23T02:25:46.573Z,95515.85
2019-02-23T02:28:16.068Z,95527.81
2019-02-23T02:30:45.571Z,95524.47
2019-02-23T02:33:15.064Z,95534.33
2019-02-23T02:35:44.563Z,95531.06
2019-02-23T02:38:14.039Z,95539.36
2019-02-23T02:40:43.502Z,95536.91
2019-02-23T02:43:12.991Z,95541.66
2019-02-23T02:45:42.620Z,95552.44
2019-02-23T02:48:12.110Z,95561.56
2019-02-23T02:50:41.640Z,95572.20
2019-02-23T02:53:11.149Z,95579.11
2019-02-23T02:55:40.632Z,95584.63
2019-02-23T02:58:11.243Z,95592.23
2019-02-23T03:00:40.750Z,95592.78
2019-02-23T03:03:11.996Z,95595.39
2019-02-23T03:05:41.540Z,95603.52
2019-02-23T03:08:11.076Z,95607.84
2019-02-23T03:10:40.555Z,95608.33
2019-02-23T03:13:10.041Z,95613.41
2019-02-23T03:15:39.523Z,95615.36
2019-02-23T03:18:09.064Z,95617.67
2019-02-23T03:20:38.593Z,95622.22
2019-02-23T03:23:08.139Z,95626.75
2019-02-23T03:25:37.664Z,95624.78
2019-02-23T03:28:07.168Z,95618.39
2019-02-23T03:30:36.655Z,95618.02
2019-02-23T03:33:06.217Z,95617.97
2019-02-23T03:35:35.769Z,95621.88
2019-02-23T03:38:05.221Z,95624.12
2019-02-23T03:40:35.094Z,95632.31
2019-02-23T03:43:04.559Z,95637.83
2019-02-23T03:45:34.023Z,95631.88
2019-02-23T03:48:03.512Z,95631.67
2019-02-23T03:50:33.039Z,95637.20
2019-02-23T03:53:02.627Z,95648.13
2019-02-23T03:55:32.126Z,95651.69
2019-02-23T03:58:01.659Z,95653.23
2019-02-23T04:00:31.217Z,95649.87
2019-02-23T04:03:00.714Z,95650.27
2019-02-23T04:05:30.220Z,95649.94
2019-02-23T04:07:59.738Z,95645.42
2019-02-23T04:10:29.278Z,95653.53
2019-02-23T04:12:58.798Z,95645.85
2019-02-23T04:15:28.278Z,95641.34
2019-02-23T04:17:57.761Z,95657.53
2019-02-23T04:20:27.228Z,95672.56
2019-02-23T04:22:56.709Z,95677.93
2019-02-23T04:25:26.176Z,95685.53
2019-02-23T04:27:55.685Z,95687.67
2019-02-23T04:30:25.160Z,95695.09
2019-02-23T04:32:54.638Z,95698.02
2019-02-23T04:35:24.129Z,95712.19
2019-02-23T04:37:53.637Z,95712.94
2019-02-23T04:40:23.185Z,95712.48
2019-02-23T04:42:52.658Z,95721.11
2019-02-23T04:45:22.126Z,95722.78
2019-02-23T04:47:51.636Z,95718.93
2019-02-23T04:50:21.138Z,95728.81
2019-02-23T04:52:50.649Z,95727.61
2019-02-23T04:55:20.584Z,95731.09
2019-02-23T04:57:50.086Z,95733.28
2019-02-23T05:00:19.610Z,95743.30
2019-02-23T05:02:49.127Z,95753.63
2019-02-23T05:05:18.672Z,95758.18
2019-02-23T05:07:48.161Z,95755.07
2019-02-23T05:10:17.672Z,95751.95
2019-02-23T05:12:47.160Z,95745.94
2019-02-23T05:15:16.669Z,95756.61
2019-02-23T05:17:46.214Z,95765.17
2019-02-23T05:20:15.697Z,95764.07
2019-02-23T05:22:45.162Z,95774.11
2019-02-23T05:25:14.636Z,95782.38
2019-02-23T05:27:44.084Z,95788.77
2019-02-23T05:30:13.557Z,95798.61
2019-02-23T05:32:43.073Z,95806.30
2019-02-23T05:35:12.659Z,95819.39
2019-02-23T05:37:42.113Z,95824.31
2019-02-23T05:40:11.658Z,95831.27
2019-02-23T05:42:41.133Z,95844.34
2019-02-23T05:45:10.710Z,95850.52
2019-02-23T05:47:40.215Z,95853.78
2019-02-23T05:50:09.705Z,95860.44
2019-02-23T05:52:39.233Z,95871.88
2019-02-23T05:55:08.924Z,95873.31
2019-02-23T05:57:38.467Z,95882.33
2019-02-23T06:00:09.602Z,95882.05
2019-02-23T06:02:39.085Z,95915.02
2019-02-23T06:05:08.808Z,95886.94
2019-02-23T06:07:38.313Z,95892.94
2019-02-23T06:10:09.613Z,95906.08
2019-02-23T06:12:39.074Z,95907.73
2019-02-23T06:15:11.262Z,95907.20
2019-02-23T06:17:40.711Z,95919.82
2019-02-23T06:20:11.041Z,95926.58
2019-02-23T06:22:40.551Z,95944.62
2019-02-23T06:25:10.267Z,95932.77
2019-02-23T06:27:39.752Z,95940.59
2019-02-23T06:30:11.060Z,95942.08
2019-02-23T06:32:40.553Z,95956.17
2019-02-23T06:35:10.189Z,95961.45
2019-02-23T06:37:39.708Z,95963.86
2019-02-23T06:40:09.460Z,95967.53
2019-02-23T06:42:38.931Z,95970.92
2019-02-23T06:45:08.735Z,95978.66
2019-02-23T06:47:38.228Z,95986.77
2019-02-23T06:50:07.762Z,95992.53
2019-02-23T06:52:37.270Z,95990.31
2019-02-23T06:55:07.228Z,96002.02
2019-02-23T06:57:37.024Z,96006.61
2019-02-23T07:00:09.106Z,96022.27
2019-02-23T07:02:38.595Z,96004.52
2019-02-23T07:05:08.255Z,96000.68
2019-02-23T07:07:37.741Z,96020.06
2019-02-23T07:10:09.093Z,96007.95
2019-02-23T07:12:38.549Z,96022.04
2019-02-23T07:15:08.515Z,96010.66
2019-02-23T07:17:38.012Z,96012.48
2019-02-23T07:20:08.046Z,96019.30
2019-02-23T07:22:37.494Z,96025.01
2019-02-23T07:25:07.354Z,96032.93
2019-02-23T07:27:36.859Z,96032.28
2019-02-23T07:30:07.221Z,96036.09
2019-02-23T07:32:36.741Z,96046.23
2019-02-23T07:35:06.322Z,96057.78
2019-02-23T07:37:35.894Z,96052.77
2019-02-23T07:40:05.573Z,96054.52
2019-02-23T07:42:35.132Z,96057.67
2019-02-23T07:45:04.867Z,96057.14
2019-02-23T07:47:34.480Z,96045.38
2019-02-23T07:50:04.121Z,96054.00
2019-02-23T07:52:33.608Z,96054.70
2019-02-23T07:55:03.129Z,96055.38
2019-02-23T07:57:32.639Z,96064.54
2019-02-23T08:00:02.120Z,96066.47
2019-02-23T08:02:31.589Z,96078.45
2019-02-23T08:05:01.202Z,96070.11
2019-02-23T08:07:30.698Z,96086.84
2019-02-23T08:10:00.346Z,96085.41
2019-02-23T08:12:29.847Z,96082.36
2019-02-23T08:14:59.338Z,96089.05
2019-02-23T08:17:28.822Z,96083.52
2019-02-23T08:19:58.353Z,96086.98
2019-02-23T08:22:37.009Z,96107.27
2019-02-23T08:24:59.307Z,96097.45
2019-02-23T08:27:29.018Z,96123.14
2019-02-23T08:29:58.541Z,96113.92
2019-02-23T08:32:28.063Z,96119.47
2019-02-23T08:34:57.585Z,96121.50
2019-02-23T08:37:27.207Z,96129.28
2019-02-23T08:39:56.784Z,96133.81
2019-02-23T08:42:39.112Z,96140.15
2019-02-23T08:45:09.016Z,96148.80
2019-02-23T08:47:38.565Z,96151.80
2019-02-23T08:50:10.025Z,96151.91
2019-02-23T08:52:48.726Z,96156.76
2019-02-23T08:55:11.068Z,96157.03
2019-02-23T08:57:40.589Z,96160.29
2019-02-23T09:00:12.860Z,96156.23
2019-02-23T09:02:42.365Z,96162.42
2019-02-23T09:05:12.450Z,96164.14
2019-02-23T09:07:43.102Z,96161.57
2019-02-23T09:10:13.060Z,96158.50
2019-02-23T09:12:42.592Z,96171.48
2019-02-23T09:15:12.385Z,96171.89
2019-02-23T09:17:41.965Z,96174.41
2019-02-23T09:20:11.499Z,96177.50
2019-02-23T09:22:41.024Z,96189.56
2019-02-23T09:25:10.660Z,96202.83
2019-02-23T09:27:40.212Z,96221.94
2019-02-23T09:30:10.033Z,96216.38
2019-02-23T09:32:39.544Z,96208.77
2019-02-23T09:35:09.192Z,96205.62
2019-02-23T09:37:38.695Z,96198.41
2019-02-23T09:40:09.233Z,96213.05
2019-02-23T09:42:39.143Z,96209.27
2019-02-23T09:45:10.205Z,96214.36
2019-02-23T09:47:39.727Z,96210.69
2019-02-23T09:50:09.280Z,96217.38
2019-02-23T09:52:38.800Z,96222.14
2019-02-23T09:55:08.627Z,96227.41
2019-02-23T09:57:38.140Z,96220.41
2019-02-23T10:00:08.968Z,96230.21
2019-02-23T10:02:38.455Z,96225.72
2019-02-23T10:05:08.184Z,96230.77
2019-02-23T10:07:37.663Z,96230.97
2019-02-23T10:10:07.920Z,96222.04
2019-02-23T10:12:37.432Z,96228.41
2019-02-23T10:15:07.470Z,96239.85
2019-02-23T10:17:36.964Z,96219.44
2019-02-23T10:20:07.198Z,96244.59
2019-02-23T10:22:39.404Z,96244.59
2019-02-23T10:25:08.352Z,96242.70
2019-02-23T10:27:37.945Z,96253.70
2019-02-23T10:30:08.698Z,96257.30
2019-02-23T10:32:38.196Z,96238.92
2019-02-23T10:35:09.027Z,96233.05
2019-02-23T10:37:38.507Z,96235.55
2019-02-23T10:40:09.544Z,96238.57
2019-02-23T10:42:40.392Z,96234.87
2019-02-23T10:45:10.700Z,96234.10
2019-02-23T10:47:40.232Z,96233.68
2019-02-23T10:50:10.090Z,96232.25
2019-02-23T10:52:39.586Z,96229.80
2019-02-23T10:55:10.079Z,96234.59
2019-02-23T10:57:39.587Z,96232.02
2019-02-23T11:00:16.071Z,96233.53
2019-02-23T11:02:45.791Z,96248.56
2019-02-23T11:05:15.695Z,96262.88
2019-02-23T11:07:45.203Z,96247.52
2019-02-23T11:10:16.172Z,96245.37
2019-02-23T11:12:49.809Z,96244.05
2019-02-23T11:15:19.275Z,96232.89
2019-02-23T11:17:48.897Z,96234.97
2019-02-23T11:20:18.650Z,96237.98
2019-02-23T11:22:48.167Z,96247.71
2019-02-23T11:25:17.651Z,96231.44
2019-02-23T11:27:47.183Z,96236.52
2019-02-23T11:30:17.122Z,96237.00
2019-02-23T11:32:46.631Z,96248.73
2019-02-23T11:35:17.504Z,96239.97
2019-02-23T11:37:47.418Z,96241.98
2019-02-23T11:40:16.909Z,96235.56
2019-02-23T11:42:46.432Z,96234.44
2019-02-23T11:45:15.971Z,96236.58
2019-02-23T11:47:45.486Z,96241.59
2019-02-23T11:50:15.488Z,96250.80
2019-02-23T11:52:45.017Z,96247.43
2019-02-23T11:55:14.611Z,96242.77
2019-02-23T11:57:44.107Z,96241.39
2019-02-23T12:00:13.891Z,96241.22
2019-02-23T12:02:51.953Z,96247.60
2019-02-23T12:05:14.704Z,96246.20
2019-02-23T12:07:44.263Z,96241.85
2019-02-23T12:10:13.972Z,96250.05
2019-02-23T12:12:43.432Z,96249.94
2019-02-23T12:15:13.229Z,96249.94
2019-02-23T12:17:42.708Z,96259.24
2019-02-23T12:20:12.394Z,96259.67
2019-02-23T12:22:41.895Z,96253.68
2019-02-23T12:25:15.058Z,96260.17
2019-02-23T12:27:42.602Z,96252.16
2019-02-23T12:30:12.074Z,96260.44
2019-02-23T12:32:41.517Z,96258.36
2019-02-23T12:35:11.055Z,96257.88
2019-02-23T12:37:40.549Z,96264.54
2019-02-23T12:40:10.341Z,96261.83
2019-02-23T12:42:39.825Z,96273.52
2019-02-23T12:45:09.416Z,96269.31
2019-02-23T12:47:38.901Z,96258.89
2019-02-23T12:50:08.871Z,96263.09
2019-02-23T12:52:38.384Z,96267.19
2019-02-23T12:55:08.588Z,96269.34
2019-02-23T12:57:38.112Z,96272.66
2019-02-23T13:00:08.923Z,96282.00
2019-02-23T13:02:38.472Z,96282.02
2019-02-23T13:05:08.029Z,96274.09
2019-02-23T13:07:40.359Z,96277.55
2019-02-23T13:10:11.414Z,96276.34
2019-02-23T13:13:14.463Z,96278.95
2019-02-23T13:15:58.049Z,96281.62
2019-02-23T13:19:26.395Z,96281.94
2019-02-23T13:22:32.597Z,96292.87
2019-02-23T13:25:35.192Z,96297.23
2019-02-23T13:29:03.852Z,96299.10
2019-02-23T13:32:21.572Z,96285.64
2019-02-23T13:35:27.070Z,96280.97
2019-02-23T13:38:29.616Z,96298.61
2019-02-23T13:41:51.996Z,96299.48
2019-02-23T13:44:47.851Z,96296.20
2019-02-23T13:47:42.030Z,96291.27
2019-02-23T13:50:38.705Z,96295.57
2019-02-23T13:53:53.895Z,96287.30
2019-02-23T13:56:54.696Z,96301.27
2019-02-23T14:00:17.423Z,96297.25
2019-02-23T14:03:29.322Z,96291.38
2019-02-23T14:06:19.830Z,96300.16
2019-02-23T14:09:20.585Z,96307.92
2019-02-23T14:12:29.912Z,96337.59
2019-02-23T14:15:38.079Z,96309.70
2019-02-23T14:18:39.980Z,96315.92
2019-02-23T14:21:56.208Z,96310.28
2019-02-23T14:24:50.540Z,96317.91
2019-02-23T14:27:33.908Z,96316.41
2019-02-23T14:30:36.196Z,96314.37
2019-02-23T14:33:41.316Z,96319.44
2019-02-23T14:36:16.446Z,96324.27
2019-02-23T14:39:20.173Z,96328.72
2019-02-23T14:42:17.481Z,96333.48
2019-02-23T14:45:33.793Z,96319.53
2019-02-23T14:48:29.250Z,96323.30
2019-02-23T14:51:39.672Z,96329.41
2019-02-23T14:54:19.187Z,96328.78
2019-02-23T14:57:41.096Z,96333.52
2019-02-23T15:00:40.815Z,96336.36
2019-02-23T15:03:50.067Z,96333.64
2019-02-23T15:06:59.914Z,96354.83
2019-02-23T15:10:16.408Z,96345.62
2019-02-23T15:13:45.861Z,96340.95
2019-02-23T15:16:28.580Z,96346.72
2019-02-23T15:19:36.893Z,96366.17
2019-02-23T15:22:33.767Z,96369.75
2019-02-23T15:26:02.286Z,96385.41
2019-02-23T15:29:18.441Z,96383.81
2019-02-23T15:32:17.998Z,96391.36
2019-02-23T15:35:14.417Z,96407.99
2019-02-23T15:38:25.788Z,96405.45
2019-02-23T15:41:29.310Z,96404.05
2019-02-23T15:44:36.286Z,96402.39
2019-02-23T15:47:43.224Z,96428.57
2019-02-23T15:50:13.587Z,96414.22
2019-02-23T15:52:43.249Z,96415.22
2019-02-23T15:55:25.340Z,96423.03
2019-02-23T15:57:43.931Z,96415.27
2019-02-23T16:00:13.432Z,96412.70
2019-02-23T16:02:42.918Z,96418.14
2019-02-23T16:05:12.766Z,96418.65
2019-02-23T16:07:43.294Z,96428.78
2019-02-23T16:10:13.196Z,96438.26
2019-02-23T16:12:42.745Z,96425.19
2019-02-23T16:15:12.281Z,96428.27
2019-02-23T16:17:41.774Z,96425.77
2019-02-23T16:20:11.311Z,96436.65
2019-02-23T16:22:40.846Z,96439.70
2019-02-23T16:25:10.370Z,96445.75
2019-02-23T16:27:39.867Z,96445.92
2019-02-23T16:30:09.765Z,96452.27
2019-02-23T16:32:39.304Z,96448.97
2019-02-23T16:35:08.929Z,96453.77
2019-02-23T16:37:38.411Z,96452.49
2019-02-23T16:40:08.019Z,96457.94
2019-02-23T16:42:37.526Z,96463.59
2019-02-23T16:45:07.069Z,96468.06
2019-02-23T16:47:36.610Z,96463.15
2019-02-23T16:50:06.272Z,96476.50
2019-02-23T16:52:35.767Z,96477.72
2019-02-23T16:55:05.471Z,96482.69
2019-02-23T16:57:35.021Z,96490.97
2019-02-23T17:00:04.900Z,96486.16
2019-02-23T17:02:36.087Z,96486.22
2019-02-23T17:05:05.769Z,96493.71
2019-02-23T17:07:35.347Z,96498.35
2019-02-23T17:10:05.118Z,96501.20
2019-02-23T17:12:35.466Z,96495.21
2019-02-23T17:15:05.112Z,96493.52
2019-02-23T17:17:34.606Z,96485.80
2019-02-23T17:20:04.202Z,96489.77
2019-02-23T17:22:33.752Z,96491.98
2019-02-23T17:25:03.260Z,96497.17
2019-02-23T17:27:36.757Z,96503.83
2019-02-23T17:30:04.125Z,96505.94
2019-02-23T17:32:33.656Z,96500.50
2019-02-23T17:35:03.147Z,96500.11
2019-02-23T17:37:32.702Z,96498.72
2019-02-23T17:40:02.219Z,96503.13
2019-02-23T17:42:33.054Z,96498.46
2019-02-23T17:45:02.609Z,96504.63
2019-02-23T17:47:32.139Z,96512.98
2019-02-23T17:50:01.674Z,96512.16
2019-02-23T17:52:31.141Z,96510.18
2019-02-23T17:55:00.660Z,96517.84
2019-02-23T17:57:30.151Z,96512.14
2019-02-23T17:59:59.660Z,96514.31
2019-02-23T18:02:29.140Z,96517.23
2019-02-23T18:05:01.684Z,96515.31
2019-02-23T18:07:31.204Z,96514.42
2019-02-23T18:10:00.722Z,96515.06
2019-02-23T18:12:30.292Z,96507.75
2019-02-23T18:14:59.850Z,96513.14
2019-02-23T18:17:29.382Z,96514.42
2019-02-23T18:19:58.906Z,96516.20
2019-02-23T18:22:28.432Z,96515.95
2019-02-23T18:24:58.009Z,96513.12
2019-02-23T18:27:27.526Z,96509.39
2019-02-23T18:29:57.313Z,96511.95
2019-02-23T18:32:26.813Z,96516.51
2019-02-23T18:34:56.291Z,96515.90
2019-02-23T18:37:25.757Z,96518.25
2019-02-23T18:39:55.295Z,96523.42
2019-02-23T18:42:24.804Z,96521.45
2019-02-23T18:44:54.280Z,96523.45
2019-02-23T18:47:23.766Z,96526.09
2019-02-23T18:49:53.347Z,96526.00
2019-02-23T18:52:22.854Z,96522.45
2019-02-23T18:54:52.390Z,96529.22
2019-02-23T18:57:21.869Z,96529.69
2019-02-23T18:59:51.369Z,96532.64
2019-02-23T19:02:20.867Z,96525.92
2019-02-23T19:04:50.381Z,96531.39
2019-02-23T19:07:19.972Z,96539.70
2019-02-23T19:09:49.450Z,96546.44
2019-02-23T19:12:18.945Z,96549.09
2019-02-23T19:14:48.519Z,96550.38
2019-02-23T19:17:17.991Z,96553.42
2019-02-23T19:19:47.555Z,96551.34
2019-02-23T19:22:17.196Z,96546.08
2019-02-23T19:24:46.681Z,96551.55
2019-02-23T19:27:16.615Z,96543.88
2019-02-23T19:29:46.115Z,96546.38
2019-02-23T19:32:15.618Z,96545.41
2019-02-23T19:34:45.108Z,96553.70
2019-02-23T19:37:14.622Z,96553.53
2019-02-23T19:39:44.128Z,96551.50
2019-02-23T19:42:13.611Z,96561.72
2019-02-23T19:44:43.155Z,96558.05
2019-02-23T19:47:15.481Z,96558.15
2019-02-23T19:49:44.993Z,96562.06
2019-02-23T19:52:18.807Z,96562.45
2019-02-23T19:54:48.372Z,96555.59
2019-02-23T19:57:17.852Z,96549.80
2019-02-23T19:59:47.350Z,96554.60
2019-02-23T20:02:16.850Z,96553.08
2019-02-23T20:04:46.371Z,96549.89
2019-02-23T20:07:15.840Z,96556.07
2019-02-23T20:09:45.545Z,96548.56
2019-02-23T20:12:15.067Z,96539.91
2019-02-23T20:14:44.536Z,96553.18
2019-02-23T20:17:14.078Z,96557.40
2019-02-23T20:19:43.550Z,96558.93
2019-02-23T20:22:13.032Z,96557.45
2019-02-23T20:24:42.568Z,96563.25
2019-02-23T20:27:12.111Z,96557.22
2019-02-23T20:29:41.704Z,96561.77
2019-02-23T20:32:11.199Z,96561.83
2019-02-23T20:34:40.711Z,96560.05
2019-02-23T20:37:10.325Z,96565.34
2019-02-23T20:39:39.849Z,96567.27
2019-02-23T20:42:09.329Z,96564.09
2019-02-23T20:44:38.826Z,96570.95
2019-02-23T20:47:08.355Z,96572.38
2019-02-23T20:49:37.876Z,96569.05
2019-02-23T20:52:08.084Z,96561.18
2019-02-23T20:54:37.558Z,96563.45
2019-02-23T20:57:13.639Z,96561.28
2019-02-23T20:59:38.227Z,96553.57
2019-02-23T21:02:07.728Z,96553.33
2019-02-23T21:04:37.235Z,96556.02
2019-02-23T21:07:06.716Z,96551.80
2019-02-23T21:09:36.236Z,96553.27
2019-02-23T21:12:05.756Z,96553.03
2019-02-23T21:14:35.257Z,96551.75
2019-02-23T21:17:04.832Z,96553.31
2019-02-23T21:19:34.324Z,96544.38
2019-02-23T21:22:03.799Z,96547.07
2019-02-23T21:24:33.262Z,96555.87
2019-02-23T21:27:02.784Z,96553.66
2019-02-23T21:29:32.297Z,96554.83
2019-02-23T21:32:01.799Z,96546.78
2019-02-23T21:34:31.272Z,96549.77
2019-02-23T21:37:00.755Z,96548.89
2019-02-23T21:39:30.248Z,96535.19
2019-02-23T21:41:59.772Z,96542.95
2019-02-23T21:44:29.319Z,96536.42
2019-02-23T21:46:58.769Z,96539.70
2019-02-23T21:49:28.312Z,96539.75
2019-02-23T21:51:57.796Z,96540.40
2019-02-23T21:54:27.252Z,96539.62
2019-02-23T21:56:56.757Z,96535.84
2019-02-23T21:59:26.288Z,96542.12
2019-02-23T22:01:55.750Z,96541.09
2019-02-23T22:04:25.290Z,96536.23
2019-02-23T22:06:54.764Z,96540.11
2019-02-23T22:09:24.198Z,96538.20
2019-02-23T22:11:53.685Z,96534.42
2019-02-23T22:14:23.172Z,96535.80
2019-02-23T22:16:52.671Z,96533.29
2019-02-23T22:19:22.129Z,96535.16
2019-02-23T22:21:51.645Z,96535.21
2019-02-23T22:24:21.160Z,96534.70
2019-02-23T22:26:50.648Z,96539.63
2019-02-23T22:29:20.170Z,96536.34
2019-02-23T22:31:49.650Z,96528.09
2019-02-23T22:34:19.167Z,96536.88
2019-02-23T22:36:48.627Z,96537.61
2019-02-23T22:39:18.073Z,96533.68
2019-02-23T22:41:49.806Z,96537.38
2019-02-23T22:44:18.748Z,96537.62
2019-02-23T22:46:48.238Z,96539.17
2019-02-23T22:49:17.711Z,96541.44
2019-02-23T22:51:47.175Z,96540.27
2019-02-23T22:54:16.632Z,96542.68
2019-02-23T22:56:46.089Z,96533.45
2019-02-23T22:59:15.612Z,96527.10
2019-02-23T23:01:45.169Z,96530.55
2019-02-23T23:04:14.651Z,96530.19
2019-02-23T23:06:44.103Z,96526.11
2019-02-23T23:09:17.166Z,96524.60
2019-02-23T23:11:46.698Z,96525.34
2019-02-23T23:14:16.179Z,96523.32
2019-02-23T23:16:45.705Z,96529.97
2019-02-23T23:19:15.207Z,96530.63
2019-02-23T23:21:44.700Z,96528.97
2019-02-23T23:24:14.258Z,96530.63
2019-02-23T23:26:43.755Z,96537.45
2019-02-23T23:29:13.264Z,96539.17
2019-02-23T23:31:42.734Z,96535.79
2019-02-23T23:34:12.205Z,96536.09
2019-02-23T23:36:41.686Z,96540.37
2019-02-23T23:39:11.127Z,96539.23
2019-02-23T23:41:40.586Z,96545.66
2019-02-23T23:44:10.061Z,96541.78
2019-02-23T23:46:39.511Z,96546.34
2019-02-23T23:49:08.978Z,96545.89
2019-02-23T23:51:38.466Z,96549.56
2019-02-23T23:54:07.949Z,96550.55
2019-02-23T23:56:37.470Z,96547.17
2019-02-23T23:59:06.935Z,96553.94
